Pagrindinis puslapis
METAR-TAF:

METAR-TAF

Oro uostai :

Gerbangkertosusila, Indonezija

platuma: 07-22-47S, ilguma: 112-47-13E, Aukštis: 3 m

METAR: trūkstamas

Laikas: 02:31 (19:31 UTC)

Prognozė

Ataskaita buvo paskelbta 2 valandos ir 31 minutes, ne 17:00 UTC
Prognozė galioja nuo 25 metu 18 UTC su 26 metu 18 UTC
Vėjas 5 kt iš Vakarų/Pietvakarių
Matomumas: 4000 m
Mažai debesys ne aukštis 2000 ft
migla
Tapsmas
nuo 26 metu 00 UTC su 26 metu 02 UTC
Vėjas 10 kt iš Rytų
Matomumas 10 km arba daugiau
Tikimybė 30% :
Laikinai
nuo 26 metu 09 UTC su 26 metu 13 UTC
Vėjas 10 kt iš Vakarų
Matomumas: 4000 m
Išsisklaidę debesys ne aukštis 1800 ft, Liūtiniai kamuoliniai debesys.
perkūnija, lietus
Tapsmas
nuo 26 metu 14 UTC su 26 metu 16 UTC
Vėjas 5 kt iš Vakarų
Matomumas: 4000 m
migla

TAF: WARR 251700Z 2518/2618 25005KT 4000 HZ FEW020 BECMG 2600/2602 09010KT 9999 NSW PROB30 TEMPO 2609/2613 26010KT 4000 TSRA SCT018CB BECMG 2614/2616 26005KT 4000 HZ

Orai ataskaitas ir orų prognozės (METAR, TAF).

turimą stotys yra geltonos ir raudonos taškus žemėlapyje.

Perkelti pele per norėdami pamatyti stoties vardą.

Tada spustelėkite, norėdami matyti oro stebėjimo ir prognozės.

Norėdami pakeisti žemėlapį: spustelėkite ant žalios mygtukų su juodo kryžiaus žemyn,; žalią mygtuką su brūkšneliu, jei norite nutolinti; arba žalių rodyklių gretimoms žemėlapius.


METAR-TAF: